aviador You're here:

LZSL Decoded Metar

SLIAC in SLOVAKIA
Report Time2017-10-22 17:00:00
UTC Time2017-10-22 17:20:43
Flight Rules ifr IFR
WindCalm
Visibility2500 m
Phenomena:Light Rain
Mist
Clouds:Few 001 Hf
Overcast 020 Hf
Ceiling2,000 ft
Temp09°C (ISA -4)
Dew Point09°C (100% RH)
AAT8.8°C
QNH1013 hPa
Density Alt712 ft
Elevation1,027 ft
Report Wrong Elevation
Raw Report
LZSL 221700Z 00000KT 2500 -RA BR FEW001 OVC020 09/09 Q1013=

Extra information for LZSL:More info

Metar Taf Metar & Taf Last 4 Metars F.Rules Stats Wind Profile Meteogram Temp Stats Airport Information Weather charts Add Link Nearby VenuesMetar ALERT Operation Metar Decoded Social comments